Terminal Aerodrome Forecast
Issued by NWS Blacksburg, VA

Home | Current Version | Previous Version | Text Only | Print | Product List | Glossary On
Versions: 1 2 3 4 5 6 7 8 9 10 11 12 13 14
000
FTUS41 KRNK 172017 AAA
TAFLYH
TAF AMD
KLYH 172017Z 1720/1818 VRB03KT P6SM VCSH OVC080
      TEMPO 1720/1723 -RA
     FM180000 VRB03KT P6SM OVC050
     FM180900 VRB03KT P6SM SCT050
     FM181200 VRB03KT P6SM FEW040 SCT250=

USA.gov is the U.S. government's official web portal to all federal, state and local government web resources and services.